sensor_id;sensor_type;location;lat;lon;timestamp;P1;durP1;ratioP1;P2;durP2;ratioP2
30635;SDS011;17400;52.392;9.750;2024-03-22T00:01:49;10.25;;;6.45;;
30635;SDS011;17400;52.392;9.750;2024-03-22T00:04:16;10.68;;;6.47;;
30635;SDS011;17400;52.392;9.750;2024-03-22T00:06:43;12.45;;;7.25;;
30635;SDS011;17400;52.392;9.750;2024-03-22T00:09:11;14.32;;;8.15;;
30635;SDS011;17400;52.392;9.750;2024-03-22T00:11:39;11.75;;;7.07;;
30635;SDS011;17400;52.392;9.750;2024-03-22T00:14:06;12.80;;;7.38;;
30635;SDS011;17400;52.392;9.750;2024-03-22T00:16:35;15.15;;;8.63;;
30635;SDS011;17400;52.392;9.750;2024-03-22T00:19:01;15.23;;;8.18;;
30635;SDS011;17400;52.392;9.750;2024-03-22T00:21:29;13.40;;;8.02;;
30635;SDS011;17400;52.392;9.750;2024-03-22T00:23:55;16.55;;;7.82;;
30635;SDS011;17400;52.392;9.750;2024-03-22T00:26:23;12.70;;;7.85;;
30635;SDS011;17400;52.392;9.750;2024-03-22T00:28:49;13.18;;;7.05;;
30635;SDS011;17400;52.392;9.750;2024-03-22T00:31:16;11.60;;;7.75;;
30635;SDS011;17400;52.392;9.750;2024-03-22T00:33:43;13.57;;;8.73;;
30635;SDS011;17400;52.392;9.750;2024-03-22T00:36:11;14.45;;;8.23;;
30635;SDS011;17400;52.392;9.750;2024-03-22T00:38:37;15.52;;;7.88;;
30635;SDS011;17400;52.392;9.750;2024-03-22T00:41:04;20.30;;;9.07;;
30635;SDS011;17400;52.392;9.750;2024-03-22T00:43:30;19.10;;;10.38;;
30635;SDS011;17400;52.392;9.750;2024-03-22T00:45:57;15.65;;;10.18;;
30635;SDS011;17400;52.392;9.750;2024-03-22T00:48:24;18.55;;;10.15;;
30635;SDS011;17400;52.392;9.750;2024-03-22T00:50:52;14.07;;;8.55;;
30635;SDS011;17400;52.392;9.750;2024-03-22T00:53:18;19.23;;;11.30;;
30635;SDS011;17400;52.392;9.750;2024-03-22T00:55:45;20.08;;;10.80;;
30635;SDS011;17400;52.392;9.750;2024-03-22T00:58:17;21.73;;;11.15;;
30635;SDS011;17400;52.392;9.750;2024-03-22T01:00:45;18.88;;;11.60;;
30635;SDS011;17400;52.392;9.750;2024-03-22T01:03:12;20.15;;;10.32;;
30635;SDS011;17400;52.392;9.750;2024-03-22T01:05:39;25.85;;;11.90;;
30635;SDS011;17400;52.392;9.750;2024-03-22T01:08:09;19.65;;;11.40;;
30635;SDS011;17400;52.392;9.750;2024-03-22T01:10:36;19.23;;;11.73;;
30635;SDS011;17400;52.392;9.750;2024-03-22T01:13:02;30.23;;;13.02;;
30635;SDS011;17400;52.392;9.750;2024-03-22T01:15:29;25.33;;;12.88;;
30635;SDS011;17400;52.392;9.750;2024-03-22T01:17:55;21.23;;;11.77;;
30635;SDS011;17400;52.392;9.750;2024-03-22T01:20:22;23.23;;;13.73;;
30635;SDS011;17400;52.392;9.750;2024-03-22T01:22:48;22.48;;;12.57;;
30635;SDS011;17400;52.392;9.750;2024-03-22T01:25:16;24.83;;;12.27;;
30635;SDS011;17400;52.392;9.750;2024-03-22T01:27:42;20.67;;;12.13;;
30635;SDS011;17400;52.392;9.750;2024-03-22T01:30:11;26.70;;;11.98;;
30635;SDS011;17400;52.392;9.750;2024-03-22T01:32:38;24.05;;;12.52;;
30635;SDS011;17400;52.392;9.750;2024-03-22T01:35:05;22.38;;;12.75;;
30635;SDS011;17400;52.392;9.750;2024-03-22T01:37:31;27.38;;;13.88;;
30635;SDS011;17400;52.392;9.750;2024-03-22T01:42:52;27.27;;;12.15;;
30635;SDS011;17400;52.392;9.750;2024-03-22T01:45:20;29.13;;;13.40;;
30635;SDS011;17400;52.392;9.750;2024-03-22T01:47:47;28.67;;;12.82;;
30635;SDS011;17400;52.392;9.750;2024-03-22T01:50:14;26.13;;;14.07;;
30635;SDS011;17400;52.392;9.750;2024-03-22T01:52:40;29.17;;;13.60;;
30635;SDS011;17400;52.392;9.750;2024-03-22T01:55:07;29.13;;;14.50;;
30635;SDS011;17400;52.392;9.750;2024-03-22T01:57:35;27.73;;;13.00;;
30635;SDS011;17400;52.392;9.750;2024-03-22T02:00:03;29.65;;;14.70;;
30635;SDS011;17400;52.392;9.750;2024-03-22T02:02:39;23.58;;;12.75;;
30635;SDS011;17400;52.392;9.750;2024-03-22T02:05:13;25.90;;;12.45;;
30635;SDS011;17400;52.392;9.750;2024-03-22T02:07:39;27.52;;;11.75;;
30635;SDS011;17400;52.392;9.750;2024-03-22T02:10:06;27.60;;;12.82;;
30635;SDS011;17400;52.392;9.750;2024-03-22T02:12:37;23.67;;;13.57;;
30635;SDS011;17400;52.392;9.750;2024-03-22T02:15:05;26.27;;;13.23;;
30635;SDS011;17400;52.392;9.750;2024-03-22T02:17:32;24.35;;;11.88;;
30635;SDS011;17400;52.392;9.750;2024-03-22T02:19:59;28.73;;;15.10;;
30635;SDS011;17400;52.392;9.750;2024-03-22T02:22:25;36.42;;;14.98;;
30635;SDS011;17400;52.392;9.750;2024-03-22T02:24:54;22.83;;;12.38;;
30635;SDS011;17400;52.392;9.750;2024-03-22T02:27:20;24.90;;;14.35;;
30635;SDS011;17400;52.392;9.750;2024-03-22T02:29:47;24.83;;;12.02;;
30635;SDS011;17400;52.392;9.750;2024-03-22T02:32:13;21.98;;;12.30;;
30635;SDS011;17400;52.392;9.750;2024-03-22T02:34:40;23.77;;;13.25;;
30635;SDS011;17400;52.392;9.750;2024-03-22T02:37:06;25.60;;;12.82;;
30635;SDS011;17400;52.392;9.750;2024-03-22T02:39:33;30.45;;;14.43;;
30635;SDS011;17400;52.392;9.750;2024-03-22T02:42:01;28.77;;;13.88;;
30635;SDS011;17400;52.392;9.750;2024-03-22T02:44:28;23.58;;;12.27;;
30635;SDS011;17400;52.392;9.750;2024-03-22T02:46:54;27.52;;;13.57;;
30635;SDS011;17400;52.392;9.750;2024-03-22T02:49:21;23.75;;;12.90;;
30635;SDS011;17400;52.392;9.750;2024-03-22T02:51:47;22.90;;;12.00;;
30635;SDS011;17400;52.392;9.750;2024-03-22T02:54:14;28.25;;;13.82;;
30635;SDS011;17400;52.392;9.750;2024-03-22T02:56:40;24.50;;;12.32;;
30635;SDS011;17400;52.392;9.750;2024-03-22T02:59:08;33.80;;;14.50;;
30635;SDS011;17400;52.392;9.750;2024-03-22T03:01:34;26.88;;;14.18;;
30635;SDS011;17400;52.392;9.750;2024-03-22T03:04:01;26.42;;;13.48;;
30635;SDS011;17400;52.392;9.750;2024-03-22T03:06:27;25.92;;;13.18;;
30635;SDS011;17400;52.392;9.750;2024-03-22T03:08:54;28.77;;;14.38;;
30635;SDS011;17400;52.392;9.750;2024-03-22T03:11:20;28.08;;;14.05;;
30635;SDS011;17400;52.392;9.750;2024-03-22T03:13:47;27.90;;;15.35;;
30635;SDS011;17400;52.392;9.750;2024-03-22T03:16:15;26.05;;;11.95;;
30635;SDS011;17400;52.392;9.750;2024-03-22T03:18:42;26.02;;;13.77;;
30635;SDS011;17400;52.392;9.750;2024-03-22T03:21:09;31.33;;;16.02;;
30635;SDS011;17400;52.392;9.750;2024-03-22T03:23:35;27.48;;;13.45;;
30635;SDS011;17400;52.392;9.750;2024-03-22T03:26:01;23.45;;;12.63;;
30635;SDS011;17400;52.392;9.750;2024-03-22T03:28:28;29.80;;;14.30;;
30635;SDS011;17400;52.392;9.750;2024-03-22T03:30:54;32.33;;;16.63;;
30635;SDS011;17400;52.392;9.750;2024-03-22T03:33:23;27.35;;;12.07;;
30635;SDS011;17400;52.392;9.750;2024-03-22T03:35:49;31.00;;;15.00;;
30635;SDS011;17400;52.392;9.750;2024-03-22T03:38:16;32.30;;;15.25;;
30635;SDS011;17400;52.392;9.750;2024-03-22T03:40:42;29.50;;;14.10;;
30635;SDS011;17400;52.392;9.750;2024-03-22T03:43:09;26.63;;;13.38;;
30635;SDS011;17400;52.392;9.750;2024-03-22T03:45:36;27.80;;;13.35;;
30635;SDS011;17400;52.392;9.750;2024-03-22T03:48:04;32.13;;;16.20;;
30635;SDS011;17400;52.392;9.750;2024-03-22T03:50:32;32.08;;;14.10;;
30635;SDS011;17400;52.392;9.750;2024-03-22T03:52:59;34.75;;;15.18;;
30635;SDS011;17400;52.392;9.750;2024-03-22T03:55:26;32.42;;;15.00;;
30635;SDS011;17400;52.392;9.750;2024-03-22T03:57:53;31.33;;;15.50;;
30635;SDS011;17400;52.392;9.750;2024-03-22T04:00:19;32.78;;;15.60;;
30635;SDS011;17400;52.392;9.750;2024-03-22T04:02:48;29.30;;;15.35;;
30635;SDS011;17400;52.392;9.750;2024-03-22T04:05:14;31.02;;;14.45;;
30635;SDS011;17400;52.392;9.750;2024-03-22T04:07:46;27.35;;;14.10;;
30635;SDS011;17400;52.392;9.750;2024-03-22T04:10:12;27.95;;;13.80;;
30635;SDS011;17400;52.392;9.750;2024-03-22T04:12:39;28.73;;;14.15;;
30635;SDS011;17400;52.392;9.750;2024-03-22T04:15:06;38.80;;;15.30;;
30635;SDS011;17400;52.392;9.750;2024-03-22T04:17:33;30.33;;;13.77;;
30635;SDS011;17400;52.392;9.750;2024-03-22T04:19:59;28.35;;;15.05;;
30635;SDS011;17400;52.392;9.750;2024-03-22T04:22:26;25.30;;;14.20;;
30635;SDS011;17400;52.392;9.750;2024-03-22T04:24:54;32.40;;;14.25;;
30635;SDS011;17400;52.392;9.750;2024-03-22T04:27:20;26.95;;;13.45;;
30635;SDS011;17400;52.392;9.750;2024-03-22T04:29:47;29.77;;;15.90;;
30635;SDS011;17400;52.392;9.750;2024-03-22T04:32:14;31.02;;;15.15;;
30635;SDS011;17400;52.392;9.750;2024-03-22T04:34:41;29.75;;;15.65;;
30635;SDS011;17400;52.392;9.750;2024-03-22T04:37:08;30.38;;;13.75;;
30635;SDS011;17400;52.392;9.750;2024-03-22T04:39:37;30.20;;;15.27;;
30635;SDS011;17400;52.392;9.750;2024-03-22T04:42:05;32.10;;;16.45;;
30635;SDS011;17400;52.392;9.750;2024-03-22T04:44:33;31.83;;;15.77;;
30635;SDS011;17400;52.392;9.750;2024-03-22T04:47:00;30.60;;;16.00;;
30635;SDS011;17400;52.392;9.750;2024-03-22T04:49:26;31.73;;;14.63;;
30635;SDS011;17400;52.392;9.750;2024-03-22T04:51:53;35.63;;;15.63;;
30635;SDS011;17400;52.392;9.750;2024-03-22T04:54:20;31.52;;;14.38;;
30635;SDS011;17400;52.392;9.750;2024-03-22T04:56:47;37.92;;;17.73;;
30635;SDS011;17400;52.392;9.750;2024-03-22T04:59:15;35.88;;;18.23;;
30635;SDS011;17400;52.392;9.750;2024-03-22T05:01:41;34.90;;;15.88;;
30635;SDS011;17400;52.392;9.750;2024-03-22T05:04:10;36.97;;;18.40;;
30635;SDS011;17400;52.392;9.750;2024-03-22T05:06:36;32.58;;;17.15;;
30635;SDS011;17400;52.392;9.750;2024-03-22T05:09:05;33.17;;;17.00;;
30635;SDS011;17400;52.392;9.750;2024-03-22T05:11:31;30.17;;;15.10;;
30635;SDS011;17400;52.392;9.750;2024-03-22T05:13:58;33.75;;;15.18;;
30635;SDS011;17400;52.392;9.750;2024-03-22T05:16:25;32.22;;;15.07;;
30635;SDS011;17400;52.392;9.750;2024-03-22T05:18:52;35.50;;;16.73;;
30635;SDS011;17400;52.392;9.750;2024-03-22T05:21:18;31.65;;;14.02;;
30635;SDS011;17400;52.392;9.750;2024-03-22T05:23:46;31.17;;;15.45;;
30635;SDS011;17400;52.392;9.750;2024-03-22T05:26:12;26.58;;;12.95;;
30635;SDS011;17400;52.392;9.750;2024-03-22T05:28:39;31.13;;;13.60;;
30635;SDS011;17400;52.392;9.750;2024-03-22T05:31:05;33.25;;;15.80;;
30635;SDS011;17400;52.392;9.750;2024-03-22T05:33:33;40.35;;;17.30;;
30635;SDS011;17400;52.392;9.750;2024-03-22T05:35:59;30.55;;;15.25;;
30635;SDS011;17400;52.392;9.750;2024-03-22T05:38:26;30.15;;;14.10;;
30635;SDS011;17400;52.392;9.750;2024-03-22T05:40:52;34.70;;;15.90;;
30635;SDS011;17400;52.392;9.750;2024-03-22T05:43:19;31.08;;;14.77;;
30635;SDS011;17400;52.392;9.750;2024-03-22T05:45:45;33.33;;;16.30;;
30635;SDS011;17400;52.392;9.750;2024-03-22T05:48:12;38.13;;;15.48;;
30635;SDS011;17400;52.392;9.750;2024-03-22T05:50:39;31.45;;;15.13;;
30635;SDS011;17400;52.392;9.750;2024-03-22T05:53:07;32.97;;;16.20;;
30635;SDS011;17400;52.392;9.750;2024-03-22T05:55:33;37.25;;;16.52;;
30635;SDS011;17400;52.392;9.750;2024-03-22T05:58:00;33.33;;;15.40;;
30635;SDS011;17400;52.392;9.750;2024-03-22T06:00:26;32.80;;;14.77;;
30635;SDS011;17400;52.392;9.750;2024-03-22T06:02:53;31.63;;;16.90;;
30635;SDS011;17400;52.392;9.750;2024-03-22T06:05:19;27.67;;;12.57;;
30635;SDS011;17400;52.392;9.750;2024-03-22T06:07:47;33.88;;;15.50;;
30635;SDS011;17400;52.392;9.750;2024-03-22T06:10:13;32.85;;;16.83;;
30635;SDS011;17400;52.392;9.750;2024-03-22T06:12:40;31.60;;;15.70;;
30635;SDS011;17400;52.392;9.750;2024-03-22T06:15:06;32.75;;;14.70;;
30635;SDS011;17400;52.392;9.750;2024-03-22T06:17:34;28.95;;;12.95;;
30635;SDS011;17400;52.392;9.750;2024-03-22T06:20:03;30.63;;;13.23;;
30635;SDS011;17400;52.392;9.750;2024-03-22T06:22:31;28.10;;;14.35;;
30635;SDS011;17400;52.392;9.750;2024-03-22T06:24:59;29.52;;;14.27;;
30635;SDS011;17400;52.392;9.750;2024-03-22T06:27:25;28.88;;;13.73;;
30635;SDS011;17400;52.392;9.750;2024-03-22T06:29:53;27.58;;;12.68;;
30635;SDS011;17400;52.392;9.750;2024-03-22T06:32:19;30.33;;;14.02;;
30635;SDS011;17400;52.392;9.750;2024-03-22T06:34:46;27.92;;;13.43;;
30635;SDS011;17400;52.392;9.750;2024-03-22T06:37:12;33.88;;;15.00;;
30635;SDS011;17400;52.392;9.750;2024-03-22T06:39:39;30.52;;;14.90;;
30635;SDS011;17400;52.392;9.750;2024-03-22T06:42:06;25.98;;;14.00;;
30635;SDS011;17400;52.392;9.750;2024-03-22T06:44:33;36.10;;;15.15;;
30635;SDS011;17400;52.392;9.750;2024-03-22T06:46:59;33.22;;;14.55;;
30635;SDS011;17400;52.392;9.750;2024-03-22T06:49:26;27.02;;;14.65;;
30635;SDS011;17400;52.392;9.750;2024-03-22T06:51:52;30.85;;;13.00;;
30635;SDS011;17400;52.392;9.750;2024-03-22T06:54:19;25.42;;;13.38;;
30635;SDS011;17400;52.392;9.750;2024-03-22T06:56:45;30.27;;;15.93;;
30635;SDS011;17400;52.392;9.750;2024-03-22T06:59:13;27.55;;;14.93;;
30635;SDS011;17400;52.392;9.750;2024-03-22T07:01:39;32.55;;;15.18;;
30635;SDS011;17400;52.392;9.750;2024-03-22T07:04:06;30.63;;;13.82;;
30635;SDS011;17400;52.392;9.750;2024-03-22T07:06:32;36.58;;;15.18;;
30635;SDS011;17400;52.392;9.750;2024-03-22T07:08:59;34.58;;;15.32;;
30635;SDS011;17400;52.392;9.750;2024-03-22T07:11:25;24.20;;;13.23;;
30635;SDS011;17400;52.392;9.750;2024-03-22T07:13:52;26.20;;;13.50;;
30635;SDS011;17400;52.392;9.750;2024-03-22T07:16:20;29.65;;;14.63;;
30635;SDS011;17400;52.392;9.750;2024-03-22T07:18:47;26.70;;;14.02;;
30635;SDS011;17400;52.392;9.750;2024-03-22T07:21:14;29.33;;;14.32;;
30635;SDS011;17400;52.392;9.750;2024-03-22T07:23:41;26.10;;;13.25;;
30635;SDS011;17400;52.392;9.750;2024-03-22T07:26:07;24.45;;;11.00;;
30635;SDS011;17400;52.392;9.750;2024-03-22T07:28:34;27.13;;;13.32;;
30635;SDS011;17400;52.392;9.750;2024-03-22T07:31:00;23.48;;;11.60;;
30635;SDS011;17400;52.392;9.750;2024-03-22T07:33:28;27.30;;;14.52;;
30635;SDS011;17400;52.392;9.750;2024-03-22T07:35:54;25.10;;;12.77;;
30635;SDS011;17400;52.392;9.750;2024-03-22T07:38:22;20.73;;;9.68;;
30635;SDS011;17400;52.392;9.750;2024-03-22T07:40:48;22.77;;;12.68;;
30635;SDS011;17400;52.392;9.750;2024-03-22T07:43:15;19.08;;;10.40;;
30635;SDS011;17400;52.392;9.750;2024-03-22T07:45:42;27.58;;;12.02;;
30635;SDS011;17400;52.392;9.750;2024-03-22T07:48:09;22.45;;;12.00;;
30635;SDS011;17400;52.392;9.750;2024-03-22T07:50:37;22.45;;;11.70;;
30635;SDS011;17400;52.392;9.750;2024-03-22T07:53:04;24.23;;;11.65;;
30635;SDS011;17400;52.392;9.750;2024-03-22T07:55:30;26.48;;;11.43;;
30635;SDS011;17400;52.392;9.750;2024-03-22T07:57:57;23.35;;;10.35;;
30635;SDS011;17400;52.392;9.750;2024-03-22T08:00:23;25.10;;;11.93;;
30635;SDS011;17400;52.392;9.750;2024-03-22T08:02:51;19.88;;;10.38;;
30635;SDS011;17400;52.392;9.750;2024-03-22T08:05:17;26.52;;;12.88;;
30635;SDS011;17400;52.392;9.750;2024-03-22T08:07:46;26.40;;;13.20;;
30635;SDS011;17400;52.392;9.750;2024-03-22T08:10:13;20.83;;;11.40;;
30635;SDS011;17400;52.392;9.750;2024-03-22T08:12:41;20.52;;;9.98;;
30635;SDS011;17400;52.392;9.750;2024-03-22T08:15:07;28.25;;;12.32;;
30635;SDS011;17400;52.392;9.750;2024-03-22T08:17:35;19.95;;;11.13;;
30635;SDS011;17400;52.392;9.750;2024-03-22T08:20:01;20.15;;;9.55;;
30635;SDS011;17400;52.392;9.750;2024-03-22T08:22:28;21.60;;;11.05;;
30635;SDS011;17400;52.392;9.750;2024-03-22T08:24:56;20.48;;;11.73;;
30635;SDS011;17400;52.392;9.750;2024-03-22T08:27:23;19.85;;;10.90;;
30635;SDS011;17400;52.392;9.750;2024-03-22T08:29:50;19.10;;;10.40;;
30635;SDS011;17400;52.392;9.750;2024-03-22T08:32:17;22.45;;;11.77;;
30635;SDS011;17400;52.392;9.750;2024-03-22T08:34:43;21.27;;;10.82;;
30635;SDS011;17400;52.392;9.750;2024-03-22T08:37:10;22.35;;;10.77;;
30635;SDS011;17400;52.392;9.750;2024-03-22T08:39:36;23.05;;;10.30;;
30635;SDS011;17400;52.392;9.750;2024-03-22T08:42:05;22.65;;;12.23;;
30635;SDS011;17400;52.392;9.750;2024-03-22T08:44:31;28.08;;;12.60;;
30635;SDS011;17400;52.392;9.750;2024-03-22T08:46:58;21.27;;;11.85;;
30635;SDS011;17400;52.392;9.750;2024-03-22T08:49:24;17.98;;;9.85;;
30635;SDS011;17400;52.392;9.750;2024-03-22T08:51:51;24.42;;;12.65;;
30635;SDS011;17400;52.392;9.750;2024-03-22T08:54:17;24.75;;;12.13;;
30635;SDS011;17400;52.392;9.750;2024-03-22T08:56:44;25.02;;;12.20;;
30635;SDS011;17400;52.392;9.750;2024-03-22T08:59:11;23.20;;;11.00;;
30635;SDS011;17400;52.392;9.750;2024-03-22T09:01:38;19.60;;;10.32;;
30635;SDS011;17400;52.392;9.750;2024-03-22T09:04:04;24.08;;;11.00;;
30635;SDS011;17400;52.392;9.750;2024-03-22T09:06:33;26.35;;;10.48;;
30635;SDS011;17400;52.392;9.750;2024-03-22T09:09:00;19.42;;;9.05;;
30635;SDS011;17400;52.392;9.750;2024-03-22T09:11:26;20.17;;;10.80;;
30635;SDS011;17400;52.392;9.750;2024-03-22T09:13:53;18.67;;;9.27;;
30635;SDS011;17400;52.392;9.750;2024-03-22T09:16:22;27.33;;;11.05;;
30635;SDS011;17400;52.392;9.750;2024-03-22T09:18:49;23.98;;;11.55;;
30635;SDS011;17400;52.392;9.750;2024-03-22T09:21:16;20.27;;;9.68;;
30635;SDS011;17400;52.392;9.750;2024-03-22T09:23:42;16.95;;;9.27;;
30635;SDS011;17400;52.392;9.750;2024-03-22T09:26:09;17.45;;;9.75;;
30635;SDS011;17400;52.392;9.750;2024-03-22T09:28:35;17.33;;;10.07;;
30635;SDS011;17400;52.392;9.750;2024-03-22T09:31:05;16.60;;;9.90;;
30635;SDS011;17400;52.392;9.750;2024-03-22T09:33:33;17.17;;;9.25;;
30635;SDS011;17400;52.392;9.750;2024-03-22T09:36:01;18.40;;;9.00;;
30635;SDS011;17400;52.392;9.750;2024-03-22T09:38:27;16.88;;;9.35;;
30635;SDS011;17400;52.392;9.750;2024-03-22T09:40:54;17.63;;;9.05;;
30635;SDS011;17400;52.392;9.750;2024-03-22T09:43:21;21.38;;;9.32;;
30635;SDS011;17400;52.392;9.750;2024-03-22T09:45:50;19.73;;;8.88;;
30635;SDS011;17400;52.392;9.750;2024-03-22T09:48:16;15.35;;;8.57;;
30635;SDS011;17400;52.392;9.750;2024-03-22T09:50:46;16.70;;;9.20;;
30635;SDS011;17400;52.392;9.750;2024-03-22T09:53:13;18.98;;;9.82;;
30635;SDS011;17400;52.392;9.750;2024-03-22T09:55:40;17.67;;;9.13;;
30635;SDS011;17400;52.392;9.750;2024-03-22T09:58:09;16.60;;;8.75;;
30635;SDS011;17400;52.392;9.750;2024-03-22T10:00:36;18.35;;;9.13;;
30635;SDS011;17400;52.392;9.750;2024-03-22T10:03:02;14.27;;;7.20;;
30635;SDS011;17400;52.392;9.750;2024-03-22T10:05:31;16.77;;;8.13;;
30635;SDS011;17400;52.392;9.750;2024-03-22T10:07:58;16.48;;;8.70;;
30635;SDS011;17400;52.392;9.750;2024-03-22T10:10:25;18.25;;;8.88;;
30635;SDS011;17400;52.392;9.750;2024-03-22T10:12:51;19.27;;;9.30;;
30635;SDS011;17400;52.392;9.750;2024-03-22T10:15:19;18.60;;;9.25;;
30635;SDS011;17400;52.392;9.750;2024-03-22T10:17:45;17.85;;;9.38;;
30635;SDS011;17400;52.392;9.750;2024-03-22T10:20:12;17.60;;;9.07;;
30635;SDS011;17400;52.392;9.750;2024-03-22T10:22:41;17.65;;;7.85;;
30635;SDS011;17400;52.392;9.750;2024-03-22T10:25:11;14.57;;;7.93;;
30635;SDS011;17400;52.392;9.750;2024-03-22T10:27:40;17.13;;;8.40;;
30635;SDS011;17400;52.392;9.750;2024-03-22T10:30:08;14.35;;;8.52;;
30635;SDS011;17400;52.392;9.750;2024-03-22T10:32:35;16.15;;;9.10;;
30635;SDS011;17400;52.392;9.750;2024-03-22T10:35:02;16.45;;;7.88;;
30635;SDS011;17400;52.392;9.750;2024-03-22T10:37:31;16.17;;;8.05;;
30635;SDS011;17400;52.392;9.750;2024-03-22T10:40:00;16.08;;;9.27;;
30635;SDS011;17400;52.392;9.750;2024-03-22T10:42:34;18.30;;;9.45;;
30635;SDS011;17400;52.392;9.750;2024-03-22T10:45:02;19.77;;;10.20;;
30635;SDS011;17400;52.392;9.750;2024-03-22T10:47:29;17.88;;;10.23;;
30635;SDS011;17400;52.392;9.750;2024-03-22T10:50:03;16.67;;;9.23;;
30635;SDS011;17400;52.392;9.750;2024-03-22T10:52:32;18.55;;;8.57;;
30635;SDS011;17400;52.392;9.750;2024-03-22T10:55:02;19.20;;;9.93;;
30635;SDS011;17400;52.392;9.750;2024-03-22T10:57:30;15.63;;;8.48;;
30635;SDS011;17400;52.392;9.750;2024-03-22T11:00:00;15.80;;;9.25;;
30635;SDS011;17400;52.392;9.750;2024-03-22T11:02:27;15.85;;;8.52;;
30635;SDS011;17400;52.392;9.750;2024-03-22T11:04:56;19.10;;;9.60;;
30635;SDS011;17400;52.392;9.750;2024-03-22T11:07:23;15.75;;;9.27;;
30635;SDS011;17400;52.392;9.750;2024-03-22T11:09:51;17.63;;;9.55;;
30635;SDS011;17400;52.392;9.750;2024-03-22T11:12:18;14.13;;;8.23;;
30635;SDS011;17400;52.392;9.750;2024-03-22T11:14:47;16.40;;;8.75;;
30635;SDS011;17400;52.392;9.750;2024-03-22T11:17:14;16.88;;;9.45;;
30635;SDS011;17400;52.392;9.750;2024-03-22T11:19:42;20.95;;;10.68;;
30635;SDS011;17400;52.392;9.750;2024-03-22T11:22:08;15.23;;;8.15;;
30635;SDS011;17400;52.392;9.750;2024-03-22T11:24:36;14.65;;;8.10;;
30635;SDS011;17400;52.392;9.750;2024-03-22T11:27:03;17.52;;;9.13;;
30635;SDS011;17400;52.392;9.750;2024-03-22T11:29:30;13.43;;;8.23;;
30635;SDS011;17400;52.392;9.750;2024-03-22T11:31:56;17.65;;;9.32;;
30635;SDS011;17400;52.392;9.750;2024-03-22T11:34:24;20.00;;;10.95;;
30635;SDS011;17400;52.392;9.750;2024-03-22T11:36:51;16.67;;;10.13;;
30635;SDS011;17400;52.392;9.750;2024-03-22T11:39:18;15.68;;;8.52;;
30635;SDS011;17400;52.392;9.750;2024-03-22T11:41:44;18.73;;;8.45;;
30635;SDS011;17400;52.392;9.750;2024-03-22T11:44:14;16.63;;;8.65;;
30635;SDS011;17400;52.392;9.750;2024-03-22T11:46:41;16.85;;;8.65;;
30635;SDS011;17400;52.392;9.750;2024-03-22T11:49:09;16.30;;;8.60;;
30635;SDS011;17400;52.392;9.750;2024-03-22T11:51:36;17.42;;;9.95;;
30635;SDS011;17400;52.392;9.750;2024-03-22T11:54:03;19.33;;;9.50;;
30635;SDS011;17400;52.392;9.750;2024-03-22T11:56:29;20.13;;;9.23;;
30635;SDS011;17400;52.392;9.750;2024-03-22T11:58:58;19.15;;;9.73;;
30635;SDS011;17400;52.392;9.750;2024-03-22T12:01:24;21.23;;;9.10;;
30635;SDS011;17400;52.392;9.750;2024-03-22T12:03:51;19.58;;;9.90;;
30635;SDS011;17400;52.392;9.750;2024-03-22T12:06:17;32.55;;;10.32;;
30635;SDS011;17400;52.392;9.750;2024-03-22T12:08:46;19.23;;;10.00;;
30635;SDS011;17400;52.392;9.750;2024-03-22T12:11:12;15.95;;;8.15;;
30635;SDS011;17400;52.392;9.750;2024-03-22T12:13:39;21.33;;;9.73;;
30635;SDS011;17400;52.392;9.750;2024-03-22T12:16:06;19.83;;;10.13;;
30635;SDS011;17400;52.392;9.750;2024-03-22T12:18:33;24.60;;;10.02;;
30635;SDS011;17400;52.392;9.750;2024-03-22T12:20:59;20.27;;;10.95;;
30635;SDS011;17400;52.392;9.750;2024-03-22T12:23:26;19.85;;;10.60;;
30635;SDS011;17400;52.392;9.750;2024-03-22T12:25:54;21.45;;;11.00;;
30635;SDS011;17400;52.392;9.750;2024-03-22T12:28:21;21.73;;;11.60;;
30635;SDS011;17400;52.392;9.750;2024-03-22T12:30:47;23.15;;;11.65;;
30635;SDS011;17400;52.392;9.750;2024-03-22T12:33:15;17.88;;;9.85;;
30635;SDS011;17400;52.392;9.750;2024-03-22T12:35:41;20.58;;;10.25;;
30635;SDS011;17400;52.392;9.750;2024-03-22T12:38:08;19.05;;;11.52;;
30635;SDS011;17400;52.392;9.750;2024-03-22T12:40:36;19.38;;;10.60;;
30635;SDS011;17400;52.392;9.750;2024-03-22T12:43:05;18.92;;;12.15;;
30635;SDS011;17400;52.392;9.750;2024-03-22T12:45:31;17.80;;;9.40;;
30635;SDS011;17400;52.392;9.750;2024-03-22T12:47:59;21.27;;;10.73;;
30635;SDS011;17400;52.392;9.750;2024-03-22T12:50:26;21.83;;;11.77;;
30635;SDS011;17400;52.392;9.750;2024-03-22T12:52:53;22.88;;;12.52;;
30635;SDS011;17400;52.392;9.750;2024-03-22T12:55:19;25.85;;;12.52;;
30635;SDS011;17400;52.392;9.750;2024-03-22T12:57:46;20.52;;;9.98;;
30635;SDS011;17400;52.392;9.750;2024-03-22T13:00:14;20.17;;;10.55;;
30635;SDS011;17400;52.392;9.750;2024-03-22T13:02:44;18.55;;;10.80;;
30635;SDS011;17400;52.392;9.750;2024-03-22T13:05:10;23.67;;;11.23;;
30635;SDS011;17400;52.392;9.750;2024-03-22T13:07:37;22.15;;;11.68;;
30635;SDS011;17400;52.392;9.750;2024-03-22T13:10:03;20.20;;;11.32;;
30635;SDS011;17400;52.392;9.750;2024-03-22T13:12:31;21.52;;;10.73;;
30635;SDS011;17400;52.392;9.750;2024-03-22T13:14:59;21.05;;;10.40;;
30635;SDS011;17400;52.392;9.750;2024-03-22T13:17:28;21.50;;;10.85;;
30635;SDS011;17400;52.392;9.750;2024-03-22T13:19:54;20.10;;;9.50;;
30635;SDS011;17400;52.392;9.750;2024-03-22T13:22:21;21.85;;;11.32;;
30635;SDS011;17400;52.392;9.750;2024-03-22T13:24:47;19.60;;;9.88;;
30635;SDS011;17400;52.392;9.750;2024-03-22T13:27:16;16.70;;;10.63;;
30635;SDS011;17400;52.392;9.750;2024-03-22T13:29:42;16.73;;;9.90;;
30635;SDS011;17400;52.392;9.750;2024-03-22T13:32:09;18.17;;;10.27;;
30635;SDS011;17400;52.392;9.750;2024-03-22T13:34:36;18.33;;;10.20;;
30635;SDS011;17400;52.392;9.750;2024-03-22T13:37:04;18.80;;;11.55;;
30635;SDS011;17400;52.392;9.750;2024-03-22T13:39:31;15.38;;;9.18;;
30635;SDS011;17400;52.392;9.750;2024-03-22T13:41:59;16.92;;;9.15;;
30635;SDS011;17400;52.392;9.750;2024-03-22T13:44:25;18.85;;;10.23;;
30635;SDS011;17400;52.392;9.750;2024-03-22T13:46:52;16.52;;;9.77;;
30635;SDS011;17400;52.392;9.750;2024-03-22T13:49:19;20.45;;;10.63;;
30635;SDS011;17400;52.392;9.750;2024-03-22T13:51:48;18.17;;;10.80;;
30635;SDS011;17400;52.392;9.750;2024-03-22T13:54:15;16.48;;;10.38;;
30635;SDS011;17400;52.392;9.750;2024-03-22T13:56:43;18.30;;;9.90;;
30635;SDS011;17400;52.392;9.750;2024-03-22T13:59:09;17.02;;;10.40;;
30635;SDS011;17400;52.392;9.750;2024-03-22T14:01:36;18.15;;;10.05;;
30635;SDS011;17400;52.392;9.750;2024-03-22T14:04:03;23.13;;;10.23;;
30635;SDS011;17400;52.392;9.750;2024-03-22T14:06:31;20.40;;;10.35;;
30635;SDS011;17400;52.392;9.750;2024-03-22T14:08:59;17.08;;;10.15;;
30635;SDS011;17400;52.392;9.750;2024-03-22T14:11:27;20.55;;;10.40;;
30635;SDS011;17400;52.392;9.750;2024-03-22T14:13:53;15.85;;;10.50;;
30635;SDS011;17400;52.392;9.750;2024-03-22T14:16:20;21.67;;;11.82;;
30635;SDS011;17400;52.392;9.750;2024-03-22T14:18:46;20.35;;;11.25;;
30635;SDS011;17400;52.392;9.750;2024-03-22T14:21:15;22.17;;;10.95;;
30635;SDS011;17400;52.392;9.750;2024-03-22T14:23:45;19.50;;;10.07;;
30635;SDS011;17400;52.392;9.750;2024-03-22T14:26:14;18.15;;;9.68;;
30635;SDS011;17400;52.392;9.750;2024-03-22T14:28:41;20.73;;;10.93;;